createdAt,value
2023-01-19T00:00:38.168Z,98356.66
2023-01-19T00:03:05.116Z,98358.78
2023-01-19T00:05:33.128Z,98363.59
2023-01-19T00:08:13.932Z,98360.55
2023-01-19T00:10:45.060Z,98356.41
2023-01-19T00:13:11.547Z,98355.85
2023-01-19T00:15:37.517Z,98360.00
2023-01-19T00:18:03.468Z,98366.09
2023-01-19T00:20:31.444Z,98374.00
2023-01-19T00:22:58.206Z,98376.28
2023-01-19T00:25:24.426Z,98374.83
2023-01-19T00:27:50.390Z,98371.93
2023-01-19T00:30:16.662Z,98366.95
2023-01-19T00:32:42.678Z,98359.83
2023-01-19T00:35:08.824Z,98360.46
2023-01-19T00:37:34.866Z,98357.77
2023-01-19T00:40:00.914Z,98352.89
2023-01-19T00:42:45.300Z,98351.35
2023-01-19T00:45:13.796Z,98347.05
2023-01-19T00:47:40.068Z,98346.27
2023-01-19T00:50:08.099Z,98347.97
2023-01-19T00:52:34.029Z,98346.20
2023-01-19T00:54:59.987Z,98345.34
2023-01-19T00:57:26.967Z,98342.01
2023-01-19T00:59:52.881Z,98341.21
2023-01-19T01:02:18.907Z,98341.35
2023-01-19T01:04:44.925Z,98343.76
2023-01-19T01:07:10.965Z,98349.45
2023-01-19T01:09:36.835Z,98348.73
2023-01-19T01:12:03.027Z,98350.36
2023-01-19T01:14:29.078Z,98343.16
2023-01-19T01:16:55.136Z,98341.95
2023-01-19T01:19:21.328Z,98341.32
2023-01-19T01:21:47.333Z,98342.14
2023-01-19T01:24:13.360Z,98342.42
2023-01-19T01:26:39.448Z,98345.41
2023-01-19T01:29:05.857Z,98348.83
2023-01-19T01:31:31.783Z,98349.23
2023-01-19T01:33:57.722Z,98351.14
2023-01-19T01:36:23.805Z,98353.17
2023-01-19T01:38:50.252Z,98345.21
2023-01-19T01:41:16.125Z,98340.09
2023-01-19T01:43:44.990Z,98342.30
2023-01-19T01:46:11.742Z,98341.56
2023-01-19T01:48:40.468Z,98339.94
2023-01-19T01:51:24.189Z,98332.29
2023-01-19T01:54:06.499Z,98334.34
2023-01-19T01:56:36.947Z,98339.52
2023-01-19T01:59:07.412Z,98344.73
2023-01-19T02:01:54.358Z,98341.43
2023-01-19T02:04:22.655Z,98341.23
2023-01-19T02:07:07.576Z,98340.14
2023-01-19T02:09:54.614Z,98332.88
2023-01-19T02:12:40.729Z,98328.15
2023-01-19T02:15:15.432Z,98328.55
2023-01-19T02:17:42.241Z,98330.64
2023-01-19T02:20:10.095Z,98331.89
2023-01-19T02:22:44.551Z,98338.98
2023-01-19T02:25:10.544Z,98338.81
2023-01-19T02:27:37.209Z,98338.80
2023-01-19T02:30:04.264Z,98341.61
2023-01-19T02:32:30.399Z,98337.13
2023-01-19T02:34:57.096Z,98336.23
2023-01-19T02:37:24.761Z,98335.87
2023-01-19T02:40:01.150Z,98332.91
2023-01-19T02:42:31.654Z,98333.42
2023-01-19T02:44:57.564Z,98330.55
2023-01-19T02:47:23.736Z,98332.97
2023-01-19T02:50:00.527Z,98331.83
2023-01-19T02:52:27.529Z,98331.71
2023-01-19T02:55:19.927Z,98334.89
2023-01-19T02:58:29.200Z,98337.95
2023-01-19T03:01:28.483Z,98335.97
2023-01-19T03:04:01.840Z,98338.62
2023-01-19T03:06:44.057Z,98344.94
2023-01-19T03:09:28.956Z,98348.10
2023-01-19T03:12:04.435Z,98355.35
2023-01-19T03:14:35.640Z,98362.18
2023-01-19T03:17:05.113Z,98362.87
2023-01-19T03:19:39.221Z,98355.77
2023-01-19T03:22:08.685Z,98355.82
2023-01-19T03:24:39.535Z,98357.05
2023-01-19T03:27:17.320Z,98355.36
2023-01-19T03:29:50.310Z,98362.19
2023-01-19T03:32:20.989Z,98369.29
2023-01-19T03:34:50.469Z,98369.20
2023-01-19T03:37:19.781Z,98368.66
2023-01-19T03:39:45.990Z,98366.13
2023-01-19T03:42:15.854Z,98366.10
2023-01-19T03:44:44.859Z,98363.14
2023-01-19T03:47:14.130Z,98366.98
2023-01-19T03:49:44.482Z,98365.55
2023-01-19T03:52:10.745Z,98365.37
2023-01-19T03:54:36.911Z,98359.41
2023-01-19T03:57:03.184Z,98354.69
2023-01-19T03:59:29.186Z,98349.97
2023-01-19T04:01:55.209Z,98351.52
2023-01-19T04:04:21.135Z,98356.14
2023-01-19T04:06:47.183Z,98360.47
2023-01-19T04:09:13.211Z,98359.51
2023-01-19T04:11:39.195Z,98354.70
2023-01-19T04:14:05.510Z,98357.88
2023-01-19T04:16:31.426Z,98360.91
2023-01-19T04:18:57.358Z,98367.59
2023-01-19T04:21:23.249Z,98367.84
2023-01-19T04:23:49.294Z,98366.11
2023-01-19T04:26:15.715Z,98360.84
2023-01-19T04:28:42.204Z,98365.29
2023-01-19T04:31:08.401Z,98372.40
2023-01-19T04:33:34.524Z,98375.67
2023-01-19T04:36:01.109Z,98379.04
2023-01-19T04:38:27.390Z,98381.48
2023-01-19T04:40:54.303Z,98380.02
2023-01-19T04:43:21.897Z,98376.36
2023-01-19T04:45:48.706Z,98377.18
2023-01-19T04:48:15.338Z,98383.78
2023-01-19T04:50:41.313Z,98386.15
2023-01-19T04:53:08.066Z,98393.41
2023-01-19T04:55:34.083Z,98394.21
2023-01-19T04:58:00.101Z,98388.05
2023-01-19T05:00:26.235Z,98390.42
2023-01-19T05:02:53.095Z,98382.04
2023-01-19T05:05:18.986Z,98380.65
2023-01-19T05:07:45.021Z,98377.36
2023-01-19T05:10:11.979Z,98380.76
2023-01-19T05:12:38.291Z,98390.80
2023-01-19T05:15:07.254Z,98397.84
2023-01-19T05:17:33.890Z,98410.15
2023-01-19T05:19:59.835Z,98414.39
2023-01-19T05:22:25.856Z,98412.35
2023-01-19T05:24:51.823Z,98416.14
2023-01-19T05:27:17.749Z,98416.01
2023-01-19T05:29:43.715Z,98415.14
2023-01-19T05:32:10.108Z,98416.80
2023-01-19T05:34:36.345Z,98418.35
2023-01-19T05:37:02.423Z,98421.67
2023-01-19T05:39:29.664Z,98427.09
2023-01-19T05:41:55.563Z,98428.52
2023-01-19T05:44:21.589Z,98429.92
2023-01-19T05:46:47.672Z,98433.40
2023-01-19T05:49:13.767Z,98433.91
2023-01-19T05:51:44.508Z,98441.33
2023-01-19T05:54:14.191Z,98443.55
2023-01-19T05:56:41.096Z,98452.40
2023-01-19T05:59:07.276Z,98455.07
2023-01-19T06:01:34.952Z,98449.46
2023-01-19T06:04:00.935Z,98452.70
2023-01-19T06:06:26.875Z,98453.15
2023-01-19T06:08:52.878Z,98452.61
2023-01-19T06:11:19.620Z,98449.81
2023-01-19T06:13:46.289Z,98451.95
2023-01-19T06:16:12.359Z,98455.59
2023-01-19T06:18:38.360Z,98461.80
2023-01-19T06:21:06.754Z,98465.73
2023-01-19T06:23:34.454Z,98469.38
2023-01-19T06:26:00.535Z,98469.55
2023-01-19T06:28:27.446Z,98467.44
2023-01-19T06:30:55.069Z,98464.97
2023-01-19T06:33:20.969Z,98471.27
2023-01-19T06:35:48.628Z,98479.39
2023-01-19T06:38:14.930Z,98487.00
2023-01-19T06:40:40.890Z,98494.90
2023-01-19T06:43:07.857Z,98495.20
2023-01-19T06:45:34.756Z,98499.30
2023-01-19T06:48:02.409Z,98496.28
2023-01-19T06:50:28.387Z,98506.05
2023-01-19T06:52:54.356Z,98509.99
2023-01-19T06:55:20.479Z,98520.20
2023-01-19T06:57:46.501Z,98522.36
2023-01-19T07:00:14.210Z,98521.45
2023-01-19T07:02:42.309Z,98530.36
2023-01-19T07:05:09.750Z,98521.28
2023-01-19T07:07:39.010Z,98518.28
2023-01-19T07:10:07.559Z,98516.59
2023-01-19T07:12:34.428Z,98526.92
2023-01-19T07:15:00.829Z,98533.45
2023-01-19T07:17:26.820Z,98545.36
2023-01-19T07:19:52.770Z,98551.66
2023-01-19T07:22:18.725Z,98561.25
2023-01-19T07:24:44.652Z,98562.15
2023-01-19T07:27:15.613Z,98566.59
2023-01-19T07:29:41.635Z,98576.44
2023-01-19T07:32:07.929Z,98583.48
2023-01-19T07:34:34.034Z,98591.66
2023-01-19T07:37:00.017Z,98592.13
2023-01-19T07:39:26.070Z,98594.19
2023-01-19T07:41:52.059Z,98597.67
2023-01-19T07:44:18.225Z,98606.91
2023-01-19T07:46:44.200Z,98617.68
2023-01-19T07:49:10.998Z,98621.73
2023-01-19T07:51:36.927Z,98625.05
2023-01-19T07:54:03.065Z,98628.73
2023-01-19T07:56:32.638Z,98636.87
2023-01-19T07:58:58.800Z,98639.68
2023-01-19T08:01:24.903Z,98645.77
2023-01-19T08:03:51.126Z,98648.89
2023-01-19T08:06:25.501Z,98654.38
2023-01-19T08:08:51.409Z,98664.52
2023-01-19T08:11:17.351Z,98671.50
2023-01-19T08:13:43.265Z,98686.77
2023-01-19T08:16:09.387Z,98692.28
2023-01-19T08:18:35.489Z,98696.50
2023-01-19T08:21:01.747Z,98707.93
2023-01-19T08:23:28.025Z,98720.23
2023-01-19T08:25:54.591Z,98724.89
2023-01-19T08:28:21.254Z,98727.84
2023-01-19T08:30:53.569Z,98728.88
2023-01-19T08:33:26.802Z,98729.91
2023-01-19T08:35:53.365Z,98731.55
2023-01-19T08:38:19.937Z,98732.14
2023-01-19T08:40:45.984Z,98742.45
2023-01-19T08:43:16.657Z,98742.94
2023-01-19T08:45:48.421Z,98747.77
2023-01-19T08:48:16.308Z,98762.95
2023-01-19T08:50:45.217Z,98770.31
2023-01-19T08:53:11.175Z,98777.71
2023-01-19T08:55:37.213Z,98778.58
2023-01-19T08:58:04.620Z,98784.94
2023-01-19T09:00:33.052Z,98789.19
2023-01-19T09:03:02.849Z,98789.38
2023-01-19T09:05:38.090Z,98796.01
2023-01-19T09:08:09.283Z,98799.19
2023-01-19T09:10:37.139Z,98800.27
2023-01-19T09:13:07.735Z,98806.22
2023-01-19T09:15:36.805Z,98805.81
2023-01-19T09:18:05.080Z,98804.59
2023-01-19T09:20:33.182Z,98802.35
2023-01-19T09:22:59.216Z,98811.66
2023-01-19T09:25:25.721Z,98823.46
2023-01-19T09:27:52.383Z,98818.73
2023-01-19T09:30:19.510Z,98816.80
2023-01-19T09:32:45.794Z,98813.73
2023-01-19T09:35:12.150Z,98816.09
2023-01-19T09:37:38.173Z,98818.71
2023-01-19T09:40:05.424Z,98824.77
2023-01-19T09:42:47.423Z,98825.91
2023-01-19T09:45:39.163Z,98823.70
2023-01-19T09:48:18.533Z,98832.62
2023-01-19T09:50:46.866Z,98843.83
2023-01-19T09:53:41.157Z,98846.09
2023-01-19T09:56:15.376Z,98850.98
2023-01-19T09:58:45.437Z,98853.44
2023-01-19T10:01:21.030Z,98854.20
2023-01-19T10:03:49.596Z,98857.16
2023-01-19T10:06:16.829Z,98856.34
2023-01-19T10:09:05.555Z,98857.24
2023-01-19T10:11:52.944Z,98861.88
2023-01-19T10:14:30.035Z,98863.58
2023-01-19T10:17:07.054Z,98852.17
2023-01-19T10:19:37.547Z,98857.66
2023-01-19T10:22:18.054Z,98861.73
2023-01-19T10:24:46.479Z,98859.94
2023-01-19T10:27:18.336Z,98861.98
2023-01-19T10:29:45.698Z,98867.13
2023-01-19T10:32:22.933Z,98868.62
2023-01-19T10:34:50.165Z,98870.16
2023-01-19T10:37:36.263Z,98872.39
2023-01-19T10:40:08.238Z,98865.19
2023-01-19T10:42:35.296Z,98869.38
2023-01-19T10:45:01.559Z,98873.66
2023-01-19T10:47:36.291Z,98872.17
2023-01-19T10:50:29.051Z,98868.12
2023-01-19T10:52:58.354Z,98868.27
2023-01-19T10:55:33.901Z,98862.14
2023-01-19T10:58:00.785Z,98863.93
2023-01-19T11:00:38.604Z,98857.75
2023-01-19T11:03:32.674Z,98860.85
2023-01-19T11:06:14.821Z,98854.75
2023-01-19T11:08:43.006Z,98855.52
2023-01-19T11:11:11.706Z,98845.73
2023-01-19T11:13:42.965Z,98845.45
2023-01-19T11:16:30.890Z,98846.65
2023-01-19T11:19:02.741Z,98836.04
2023-01-19T11:21:33.793Z,98841.96
2023-01-19T11:24:09.002Z,98837.51
2023-01-19T11:26:47.459Z,98840.66
2023-01-19T11:33:41.652Z,98831.13
2023-01-19T11:36:47.963Z,98833.27
2023-01-19T11:39:28.475Z,98817.84
2023-01-19T11:42:25.450Z,98826.27
2023-01-19T11:45:03.200Z,98823.15
2023-01-19T11:47:37.863Z,98820.18
2023-01-19T11:50:22.960Z,98816.73
2023-01-19T11:52:55.145Z,98813.28
2023-01-19T11:55:51.801Z,98815.61
2023-01-19T11:58:19.924Z,98818.25
2023-01-19T12:01:09.859Z,98812.23
2023-01-19T12:03:46.030Z,98812.58
2023-01-19T12:06:32.251Z,98813.25
2023-01-19T12:09:12.881Z,98811.82
2023-01-19T12:11:58.736Z,98807.39
2023-01-19T12:14:46.679Z,98801.84
2023-01-19T12:17:24.276Z,98797.09
2023-01-19T12:20:20.071Z,98801.07
2023-01-19T12:23:13.071Z,98802.83
2023-01-19T12:25:47.862Z,98799.80
2023-01-19T12:28:17.963Z,98800.85
2023-01-19T12:30:44.312Z,98803.55
2023-01-19T12:33:25.166Z,98805.63
2023-01-19T12:36:03.979Z,98802.52
2023-01-19T12:38:38.253Z,98796.96
2023-01-19T12:41:19.747Z,98798.02
2023-01-19T12:44:12.526Z,98795.92
2023-01-19T12:46:46.344Z,98801.73
2023-01-19T12:49:15.242Z,98805.29
2023-01-19T12:51:41.489Z,98804.39
2023-01-19T12:54:18.926Z,98798.79
2023-01-19T12:56:46.528Z,98800.16
2023-01-19T12:59:25.324Z,98802.58
2023-01-19T13:02:19.422Z,98806.67
2023-01-19T13:05:24.193Z,98805.09
2023-01-19T13:08:02.360Z,98804.77
2023-01-19T13:10:59.398Z,98808.05
2023-01-19T13:13:26.792Z,98811.99
2023-01-19T13:15:55.856Z,98814.48
2023-01-19T13:18:30.245Z,98819.83
2023-01-19T13:21:04.645Z,98821.55
2023-01-19T13:23:51.938Z,98821.53
2023-01-19T13:26:24.179Z,98825.64
2023-01-19T13:28:55.337Z,98829.62
2023-01-19T13:31:23.421Z,98832.71
2023-01-19T13:34:02.853Z,98836.64
2023-01-19T13:37:16.036Z,98840.90
2023-01-19T13:39:44.429Z,98841.66
2023-01-19T13:42:38.244Z,98845.49
2023-01-19T13:45:29.508Z,98842.70
2023-01-19T13:47:59.384Z,98845.20
2023-01-19T14:01:29.128Z,98861.60
2023-01-19T14:03:55.898Z,98861.05
2023-01-19T14:06:40.085Z,98861.81
2023-01-19T14:09:19.278Z,98859.97
2023-01-19T14:12:09.041Z,98858.89
2023-01-19T14:14:53.356Z,98862.89
2023-01-19T14:17:36.085Z,98865.67
2023-01-19T14:20:02.191Z,98866.35
2023-01-19T14:22:43.289Z,98869.98
2023-01-19T14:25:32.983Z,98874.09
2023-01-19T14:28:28.617Z,98876.00
2023-01-19T14:30:57.686Z,98883.10
2023-01-19T14:33:35.772Z,98882.29
2023-01-19T14:36:25.330Z,98883.91
2023-01-19T14:38:52.781Z,98886.30
2023-01-19T14:41:27.821Z,98889.79
2023-01-19T14:43:58.198Z,98894.58
2023-01-19T14:46:24.889Z,98891.47
2023-01-19T14:49:01.784Z,98890.20
2023-01-19T14:51:30.855Z,98891.05
2023-01-19T14:54:16.601Z,98891.36
2023-01-19T14:56:42.669Z,98889.11
2023-01-19T14:59:10.218Z,98892.21
2023-01-19T15:01:38.994Z,98891.77
2023-01-19T15:04:05.195Z,98893.44
2023-01-19T15:06:33.084Z,98900.06
2023-01-19T15:08:59.099Z,98898.01
2023-01-19T15:11:29.879Z,98903.61
2023-01-19T15:13:55.993Z,98906.34
2023-01-19T15:16:26.167Z,98908.48
2023-01-19T15:18:53.273Z,98909.41
2023-01-19T15:21:29.481Z,98910.79
2023-01-19T15:23:57.571Z,98913.45
2023-01-19T15:26:25.831Z,98915.66
2023-01-19T15:28:51.989Z,98914.30
2023-01-19T15:31:21.001Z,98918.75
2023-01-19T15:33:47.346Z,98921.17
2023-01-19T15:36:17.836Z,98920.19
2023-01-19T15:38:44.929Z,98918.39
2023-01-19T15:41:18.436Z,98921.81
2023-01-19T15:43:44.403Z,98921.31
2023-01-19T15:46:14.897Z,98919.99
2023-01-19T15:48:41.827Z,98922.46
2023-01-19T15:51:16.794Z,98918.36
2023-01-19T15:53:43.565Z,98922.30
2023-01-19T15:56:22.675Z,98920.10
2023-01-19T15:58:49.759Z,98918.68
2023-01-19T16:01:31.704Z,98921.17
2023-01-19T16:04:10.955Z,98921.11
2023-01-19T16:09:36.741Z,98927.52
2023-01-19T16:12:13.283Z,98930.69
2023-01-19T16:14:45.515Z,98932.89
2023-01-19T16:17:11.969Z,98935.63
2023-01-19T16:19:42.237Z,98940.75
2023-01-19T16:22:14.286Z,98946.03
2023-01-19T16:28:31.693Z,98951.20
2023-01-19T16:31:00.376Z,98953.91
2023-01-19T16:33:26.454Z,98957.09
2023-01-19T16:35:52.452Z,98966.65
2023-01-19T16:38:18.784Z,98967.20
2023-01-19T16:40:45.956Z,98972.31
2023-01-19T16:43:13.991Z,98976.18
2023-01-19T16:45:58.460Z,98977.09
2023-01-19T16:48:26.083Z,98977.83
2023-01-19T16:50:59.975Z,98977.59
2023-01-19T16:53:27.690Z,98974.86
2023-01-19T16:55:53.800Z,98979.35
2023-01-19T16:58:19.872Z,98988.08
2023-01-19T17:00:45.908Z,98991.58
2023-01-19T17:03:12.136Z,98993.76
2023-01-19T17:05:38.151Z,98997.04
2023-01-19T17:08:04.341Z,99003.73
2023-01-19T17:10:30.274Z,99012.20
2023-01-19T17:12:59.252Z,99015.02
2023-01-19T17:15:25.226Z,99019.34
2023-01-19T17:17:51.221Z,99018.98
2023-01-19T17:20:20.231Z,99024.49
2023-01-19T17:22:46.158Z,99027.02
2023-01-19T17:25:12.183Z,99026.05
2023-01-19T17:27:43.346Z,99029.16
2023-01-19T17:30:10.283Z,99027.35
2023-01-19T17:32:36.666Z,99031.14
2023-01-19T17:35:04.768Z,99033.67
2023-01-19T17:37:32.821Z,99036.66
2023-01-19T17:40:01.700Z,99038.40
2023-01-19T17:42:42.877Z,99039.20
2023-01-19T17:45:11.970Z,99039.46
2023-01-19T17:47:38.323Z,99036.74
2023-01-19T17:50:05.033Z,99036.56
2023-01-19T17:52:31.190Z,99035.33
2023-01-19T17:54:57.953Z,99033.47
2023-01-19T17:57:24.017Z,99036.64
2023-01-19T17:59:50.033Z,99038.55
2023-01-19T18:02:16.000Z,99042.52
2023-01-19T18:04:42.164Z,99040.79
2023-01-19T18:07:08.301Z,99046.88
2023-01-19T18:09:34.255Z,99046.69
2023-01-19T18:13:01.949Z,99047.54
2023-01-19T18:15:10.954Z,99045.45
2023-01-19T18:18:07.570Z,99046.08
2023-01-19T18:20:37.087Z,99047.67
2023-01-19T18:23:03.153Z,99046.54
2023-01-19T18:25:40.226Z,99051.88
2023-01-19T18:28:06.551Z,99047.23
2023-01-19T18:30:40.153Z,99041.82
2023-01-19T18:33:22.495Z,99046.98
2023-01-19T18:35:56.137Z,99047.72
2023-01-19T18:38:22.345Z,99047.27
2023-01-19T18:40:48.499Z,99047.31
2023-01-19T18:43:17.394Z,99051.33
2023-01-19T18:45:53.242Z,99045.61
2023-01-19T18:48:19.327Z,99049.85
2023-01-19T18:50:45.821Z,99050.64
2023-01-19T18:53:12.786Z,99036.13
2023-01-19T18:55:39.725Z,99043.70
2023-01-19T18:58:31.184Z,99044.38
2023-01-19T19:01:01.842Z,99042.88
2023-01-19T19:03:30.988Z,99037.45
2023-01-19T19:06:06.554Z,99033.56
2023-01-19T19:08:36.054Z,99036.41
2023-01-19T19:11:02.097Z,99035.05
2023-01-19T19:13:28.326Z,99037.65
2023-01-19T19:16:03.011Z,99041.11
2023-01-19T19:18:30.504Z,99046.31
2023-01-19T19:21:27.550Z,99041.42
2023-01-19T19:24:07.777Z,99030.61
2023-01-19T19:26:37.742Z,99043.15
2023-01-19T19:29:10.472Z,99046.96
2023-01-19T19:31:58.705Z,99041.52
2023-01-19T19:34:38.630Z,99039.05
2023-01-19T19:37:24.247Z,99039.92
2023-01-19T19:40:01.829Z,99035.23
2023-01-19T19:47:01.738Z,99038.35
2023-01-19T19:50:08.174Z,99039.15
2023-01-19T20:00:36.904Z,99029.69
2023-01-19T20:11:06.524Z,99036.48
2023-01-19T20:11:12.227Z,99038.95
2023-01-19T20:13:40.283Z,99040.36
2023-01-19T20:20:07.395Z,99039.45
2023-01-19T20:22:43.476Z,99030.13
2023-01-19T20:25:17.284Z,99041.48
2023-01-19T20:27:48.098Z,99045.96
2023-01-19T20:34:28.262Z,99050.30
2023-01-19T20:49:04.731Z,99056.01
2023-01-19T20:51:49.937Z,99061.53
2023-01-19T20:54:29.942Z,99049.81
2023-01-19T20:56:56.949Z,99063.12
2023-01-19T20:59:23.623Z,99057.39
2023-01-19T21:01:50.218Z,99058.09
2023-01-19T21:04:16.941Z,99067.49
2023-01-19T21:06:44.329Z,99069.27
2023-01-19T21:09:11.201Z,99070.54
2023-01-19T21:11:50.367Z,99069.91
2023-01-19T21:14:18.024Z,99069.10
2023-01-19T21:18:01.031Z,99068.15
2023-01-19T21:20:44.195Z,99060.15
2023-01-19T21:23:47.998Z,99074.41
2023-01-19T21:26:18.554Z,99073.11
2023-01-19T21:29:50.801Z,99075.17
2023-01-19T21:35:11.325Z,99076.74
2023-01-19T21:36:35.660Z,99077.37
2023-01-19T21:40:59.252Z,99084.52
2023-01-19T21:43:08.368Z,99096.38
2023-01-19T21:45:42.918Z,99102.45
2023-01-19T21:48:52.034Z,99103.71
2023-01-19T21:52:06.473Z,99106.67
2023-01-19T21:55:12.097Z,99105.66
2023-01-19T21:57:40.945Z,99108.40
2023-01-19T22:00:10.816Z,99103.45
2023-01-19T22:02:38.926Z,99113.83
2023-01-19T22:05:06.026Z,99112.00
2023-01-19T22:07:37.560Z,99107.45
2023-01-19T22:10:05.911Z,99113.05
2023-01-19T22:16:14.672Z,99115.22
2023-01-19T22:18:50.978Z,99123.66
2023-01-19T22:21:22.399Z,99121.06
2023-01-19T22:23:53.987Z,99120.19
2023-01-19T22:26:21.874Z,99118.71
2023-01-19T22:28:53.416Z,99123.04
2023-01-19T22:31:19.774Z,99126.73
2023-01-19T22:33:46.151Z,99127.27
2023-01-19T22:36:26.967Z,99128.42
2023-01-19T22:39:02.395Z,99131.85
2023-01-19T22:41:34.907Z,99140.00
2023-01-19T22:44:05.097Z,99144.09
2023-01-19T22:46:38.762Z,99141.99
2023-01-19T22:49:07.276Z,99140.81
2023-01-19T22:51:34.907Z,99138.81
2023-01-19T22:54:01.511Z,99141.25
2023-01-19T22:56:30.684Z,99140.64
2023-01-19T22:58:58.173Z,99139.08
2023-01-19T23:01:32.771Z,99141.21
2023-01-19T23:04:02.839Z,99143.83
2023-01-19T23:06:32.393Z,99136.52
2023-01-19T23:09:11.319Z,99141.45
2023-01-19T23:11:42.375Z,99140.63
2023-01-19T23:14:15.186Z,99140.42
2023-01-19T23:16:51.480Z,99140.55
2023-01-19T23:19:39.625Z,99145.52
2023-01-19T23:22:08.294Z,99145.55
2023-01-19T23:24:36.615Z,99151.58
2023-01-19T23:27:11.219Z,99149.78
2023-01-19T23:29:43.967Z,99151.52
2023-01-19T23:32:10.412Z,99149.36
2023-01-19T23:38:14.390Z,99155.91
2023-01-19T23:40:23.258Z,99151.02
2023-01-19T23:42:49.599Z,99151.34
2023-01-19T23:45:15.882Z,99152.94
2023-01-19T23:47:47.541Z,99156.04
2023-01-19T23:50:14.095Z,99157.91
2023-01-19T23:56:33.034Z,99161.75
2023-01-19T23:59:08.202Z,99163.48
